Time;durP1;ratioP1;P1;durP2;ratioP2;P2;SDS_P1;SDS_P2;PMS_P1;PMS_P2;Temp;Humidity;BMP_temperature;BMP_pressure;BME280_temperature;BME280_humidity;BME280_pressure;Samples;Min_cycle;Max_cycle;Signal;HPM_P1;HPM_P2
2024/04/01 00:00:59;;;;;;;5.88;1.60;;;;;;;14.17;48.39;94561.75;4965236;29;20424;-87
2024/04/01 01:03:39;;;;;;;12.35;2.65;;;;;;;13.58;56.73;94478.84;5650849;23;20063;-89
2024/04/01 01:06:05;;;;;;;7.95;2.33;;;;;;;13.54;56.69;94462.06;4944021;29;20063;-89
2024/04/01 01:08:32;;;;;;;6.10;2.17;;;;;;;13.50;57.01;94458.34;4943641;29;20048;-87
2024/04/01 01:10:58;;;;;;;10.60;2.40;;;;;;;13.48;57.22;94449.97;4944658;29;20055;-89
2024/04/01 01:13:24;;;;;;;9.93;2.28;;;;;;;13.47;57.17;94443.16;4943615;29;20066;-86
2024/04/01 01:15:51;;;;;;;8.00;2.20;;;;;;;13.45;57.22;94433.97;4943846;29;20055;-87
2024/04/01 02:17:07;;;;;;;19.05;3.75;;;;;;;13.00;62.18;94312.97;5847181;23;20056;-81
2024/04/01 02:19:40;;;;;;;14.40;4.13;;;;;;;12.94;61.84;94322.63;4965166;29;20028;-81
2024/04/01 02:22:13;;;;;;;11.43;2.88;;;;;;;12.88;62.37;94288.81;4965516;29;20028;-81
2024/04/01 02:24:47;;;;;;;14.15;3.33;;;;;;;12.85;62.50;94305.03;4965212;29;20032;-81
2024/04/01 02:27:22;;;;;;;12.80;3.50;;;;;;;12.85;62.71;94326.75;4981284;28;20031;-82
2024/04/01 02:29:53;;;;;;;9.50;2.72;;;;;;;12.88;62.53;94330.69;4964866;29;20027;-82
2024/04/01 02:32:31;;;;;;;10.77;3.30;;;;;;;12.90;62.69;94307.66;4965508;29;20032;-84
2024/04/01 02:35:01;;;;;;;15.30;2.83;;;;;;;12.90;62.50;94256.16;4965312;29;20024;-82
2024/04/01 02:37:36;;;;;;;9.85;2.90;;;;;;;12.89;62.26;94211.91;5325729;23;20027;-81
2024/04/01 02:40:12;;;;;;;12.18;2.85;;;;;;;12.86;62.68;94222.91;4965158;29;20034;-82
2024/04/01 02:42:47;;;;;;;12.88;3.95;;;;;;;12.88;62.87;94273.13;4963260;28;20046;-82
2024/04/01 02:45:20;;;;;;;12.98;3.22;;;;;;;12.91;62.30;94267.38;5557650;23;20031;-80
2024/04/01 03:12:00;;;;;;;12.38;3.05;;;;;;;12.61;62.99;94220.91;4962225;28;20040;-82
2024/04/01 03:14:32;;;;;;;10.88;2.95;;;;;;;12.53;63.03;94253.56;4963425;28;20032;-83
2024/04/01 03:17:03;;;;;;;13.43;2.90;;;;;;;12.50;63.65;94252.22;4962934;28;20050;-81
2024/04/01 03:19:34;;;;;;;10.70;2.95;;;;;;;12.48;63.37;94245.66;4962265;28;20056;-82
2024/04/01 03:52:22;;;;;;;14.63;2.75;;;;;;;12.46;64.42;94286.97;4961305;28;20054;-82
2024/04/01 04:03:02;;;;;;;11.57;2.90;;;;;;;12.26;64.41;94266.69;5097763;23;20035;-82
2024/04/01 04:05:38;;;;;;;12.50;3.47;;;;;;;12.15;64.66;94255.34;4963662;29;20043;-82
2024/04/01 04:08:47;;;;;;;8.10;2.70;;;;;;;12.09;65.09;94254.53;4963370;29;20028;-82
2024/04/01 04:11:21;;;;;;;8.13;2.58;;;;;;;12.04;65.02;94243.22;4947792;29;20032;-81
2024/04/01 04:24:12;;;;;;;12.53;2.80;;;;;;;11.88;65.37;94243.09;5233716;23;20039;-81
2024/04/01 04:26:45;;;;;;;8.32;2.60;;;;;;;11.89;65.23;94239.44;4966064;29;20304;-81
2024/04/01 04:29:18;;;;;;;12.50;2.83;;;;;;;11.90;64.84;94235.03;4947442;29;20035;-81
2024/04/01 04:31:55;;;;;;;8.90;2.85;;;;;;;11.85;65.70;94220.06;4947104;29;20035;-81
2024/04/01 04:34:27;;;;;;;10.23;2.60;;;;;;;11.84;65.02;94208.03;4947026;29;20059;-80
2024/04/01 04:37:05;;;;;;;10.45;2.70;;;;;;;11.83;65.16;94201.25;4946292;29;20048;-81
2024/04/01 04:39:42;;;;;;;14.82;3.35;;;;;;;11.79;65.35;94210.59;4947062;29;20034;-81
2024/04/01 04:42:18;;;;;;;12.73;2.55;;;;;;;11.75;65.12;94199.06;4946488;29;20031;-81
2024/04/01 04:44:56;;;;;;;12.93;3.22;;;;;;;11.71;65.34;94200.59;4946511;29;20030;-82
2024/04/01 04:47:25;;;;;;;7.72;2.63;;;;;;;11.75;65.79;94227.81;4946421;29;20034;-81
2024/04/01 04:49:54;;;;;;;10.20;2.33;;;;;;;11.85;65.12;94216.66;4945674;29;20041;-81
2024/04/01 04:52:23;;;;;;;8.77;2.97;;;;;;;11.86;64.92;94200.72;4945234;29;20066;-80
2024/04/01 04:54:54;;;;;;;11.77;3.08;;;;;;;11.82;65.13;94183.97;4944711;29;20035;-80
2024/04/01 04:57:23;;;;;;;13.50;3.80;;;;;;;11.76;65.01;94174.50;4945206;29;20052;-81
2024/04/01 04:59:57;;;;;;;9.93;3.15;;;;;;;11.71;65.08;94197.97;5562241;23;20039;-81
2024/04/01 05:02:32;;;;;;;8.25;2.25;;;;;;;11.68;65.99;94208.94;4981894;29;20034;-81
2024/04/01 05:05:04;;;;;;;7.47;2.33;;;;;;;11.73;65.59;94190.69;4981618;29;20033;-81
2024/04/01 05:07:43;;;;;;;9.18;2.70;;;;;;;11.75;65.29;94180.78;4954284;28;20033;-81
2024/04/01 05:12:52;;;;;;;6.47;2.45;;;;;;;11.75;65.29;94183.41;5951540;23;20553;-80
2024/04/01 05:15:23;;;;;;;5.50;1.88;;;;;;;11.80;65.55;94186.03;4961728;29;20044;-80
2024/04/01 05:17:54;;;;;;;11.50;2.97;;;;;;;11.84;64.61;94186.34;4962319;29;20032;-81
2024/04/01 05:20:45;;;;;;;6.90;2.00;;;;;;;11.85;65.71;94198.34;5650793;23;20067;-81
2024/04/01 05:23:22;;;;;;;9.10;2.03;;;;;;;11.89;65.23;94184.56;4964119;28;20041;-82
2024/04/01 05:25:49;;;;;;;8.82;2.53;;;;;;;11.90;64.36;94180.94;4961965;29;20042;-85
2024/04/01 05:28:21;;;;;;;5.90;2.55;;;;;;;11.83;64.24;94193.41;4951120;29;20059;-84
2024/04/01 05:30:53;;;;;;;10.00;2.92;;;;;;;11.87;64.77;94204.13;4943742;29;20051;-82
2024/04/01 07:00:01;;;;;;;3.05;2.08;;;;;;;11.72;72.22;94497.31;6072629;23;20018;31
2024/04/01 07:02:39;;;;;;;4.85;3.38;;;;;;;11.69;72.74;94495.16;4924980;29;20055;-81
2024/04/01 07:05:12;;;;;;;4.22;2.30;;;;;;;11.68;71.91;94502.22;4929153;29;20039;-81
2024/04/01 11:02:59;;;;;;;0.10;0.10;;;;;;;13.20;63.97;94961.56;5856942;23;20074;-80
2024/04/01 12:59:46;;;;;;;0.10;0.00;;;;;;;12.16;56.90;95226.63;5087313;23;20311;-80
2024/04/01 13:08:07;;;;;;;0.20;0.08;;;;;;;11.76;60.37;95221.94;5625557;23;20046;-83
2024/04/01 13:11:15;;;;;;;0.20;0.10;;;;;;;11.66;61.29;95229.53;4965685;29;20031;-82
2024/04/01 13:14:08;;;;;;;0.30;0.10;;;;;;;11.58;61.43;95216.78;4962313;29;20037;-82
2024/04/01 13:17:01;;;;;;;0.38;0.00;;;;;;;11.55;62.32;95218.03;5488043;23;20035;-81
2024/04/01 13:19:38;;;;;;;;;;;;;;;11.50;62.06;95213.47;4941705;29;20027;-82
2024/04/01 13:22:34;;;;;;;0.10;0.10;;;;;;;11.45;62.60;95208.09;5104903;23;19915;-81
2024/04/01 13:33:41;;;;;;;0.10;0.00;;;;;;;11.52;62.03;95219.28;4980385;29;20363;-81
2024/04/01 13:39:15;;;;;;;0.13;0.13;;;;;;;11.50;61.13;95236.97;4974380;23;20067;-81
2024/04/01 13:50:16;;;;;;;0.20;0.20;;;;;;;11.63;60.99;95262.13;5516558;23;20079;-80
2024/04/01 13:53:22;;;;;;;0.00;0.00;;;;;;;11.64;61.30;95268.94;4965228;29;20276;-81
2024/04/01 13:56:22;;;;;;;0.00;0.00;;;;;;;11.67;60.62;95267.69;5048814;23;20032;-82
2024/04/01 13:59:11;;;;;;;0.10;0.10;;;;;;;11.69;58.89;95266.44;5062948;23;20043;-81
2024/04/01 14:01:56;;;;;;;0.17;0.10;;;;;;;11.71;58.83;95272.25;4965019;29;20035;-81
2024/04/01 14:04:59;;;;;;;0.20;0.10;;;;;;;11.67;57.69;95255.41;4962753;29;20054;-81
2024/04/01 14:10:40;;;;;;;0.50;0.35;;;;;;;11.69;58.09;95265.66;5181828;23;19929;-84
2024/04/01 14:13:21;;;;;;;0.20;0.17;;;;;;;11.71;58.68;95282.69;4963323;28;20097;-86
2024/04/01 14:15:59;;;;;;;0.00;0.00;;;;;;;11.71;57.94;95279.28;4967213;28;20051;-82
2024/04/01 14:29:15;;;;;;;0.00;0.00;;;;;;;11.67;57.92;95320.72;4963549;29;20044;-81
2024/04/01 14:31:46;;;;;;;0.10;0.10;;;;;;;11.70;57.85;95330.75;4968586;29;20031;-81
2024/04/01 14:37:03;;;;;;;0.45;0.00;;;;;;;11.81;56.62;95352.72;5016526;23;20058;-82
2024/04/01 14:42:29;;;;;;;0.00;0.00;;;;;;;11.72;56.73;95360.06;5213526;23;20041;-81
2024/04/01 14:47:50;;;;;;;0.40;0.10;;;;;;;11.67;56.94;95356.50;5054467;23;20043;-82
2024/04/01 14:53:10;;;;;;;0.25;0.17;;;;;;;11.66;55.61;95360.94;5766524;23;19953;-82
2024/04/01 14:55:41;;;;;;;1.35;0.40;;;;;;;11.63;55.44;95360.56;5285356;23;20032;-81
2024/04/01 14:58:12;;;;;;;0.22;0.10;;;;;;;11.56;56.11;95360.63;5524139;23;20028;-81
2024/04/01 15:00:40;;;;;;;0.10;0.10;;;;;;;11.51;56.24;95369.13;4967324;29;20031;-82
2024/04/01 15:12:04;;;;;;;0.20;0.10;;;;;;;11.47;56.65;95385.44;5105555;23;19961;-81
2024/04/01 15:14:34;;;;;;;0.10;0.10;;;;;;;11.45;55.76;95385.66;4982539;29;20027;-81
2024/04/01 15:17:11;;;;;;;0.10;0.00;;;;;;;11.39;54.76;95397.00;4978293;29;20035;-82
2024/04/01 15:19:41;;;;;;;0.10;0.10;;;;;;;11.33;55.50;95403.06;4982686;28;20031;-82
2024/04/01 15:32:50;;;;;;;1.13;0.13;;;;;;;11.37;56.16;95399.03;4962358;29;20046;-81
2024/04/01 15:37:56;;;;;;;0.00;0.00;;;;;;;11.50;55.74;95387.63;5238848;23;20039;-81
2024/04/01 15:40:27;;;;;;;0.08;0.08;;;;;;;11.58;55.27;95403.00;4965012;29;20027;-81
2024/04/01 15:43:03;;;;;;;0.22;0.10;;;;;;;11.58;54.15;95394.38;5042893;23;20032;-81
2024/04/01 15:45:33;;;;;;;0.10;0.10;;;;;;;11.60;56.02;95400.19;4950519;29;20047;-81
2024/04/01 15:50:43;;;;;;;0.57;0.10;;;;;;;11.70;54.58;95388.22;5171220;23;20100;-81
2024/04/01 15:53:18;;;;;;;0.03;0.03;;;;;;;11.73;53.93;95393.00;4962725;28;20076;-82
2024/04/01 15:55:49;;;;;;;1.10;0.20;;;;;;;11.71;53.57;95389.81;5300247;23;20060;-81
2024/04/01 15:58:31;;;;;;;0.05;0.05;;;;;;;11.70;53.80;95388.22;4983784;23;20036;-82
2024/04/01 16:09:25;;;;;;;1.52;0.30;;;;;;;11.80;52.88;95392.13;5417474;23;20083;-80
2024/04/01 16:12:03;;;;;;;0.43;0.28;;;;;;;11.82;53.65;95392.72;4956900;29;20020;-81
2024/04/01 16:14:36;;;;;;;0.80;0.15;;;;;;;11.85;53.49;95390.47;4966756;29;20033;-81
2024/04/01 16:17:10;;;;;;;0.20;0.20;;;;;;;11.86;52.53;95384.22;4963299;29;20041;-82
2024/04/01 16:19:40;;;;;;;0.98;0.20;;;;;;;11.88;53.06;95384.03;4965451;29;20046;-81
2024/04/01 16:57:23;;;;;;;0.10;0.10;;;;;;;11.69;55.46;95406.72;5216753;23;20035;-81
2024/04/01 16:59:53;;;;;;;2.78;0.20;;;;;;;11.72;56.39;95412.31;4962598;28;20034;-81
2024/04/01 17:40:30;;;;;;;0.30;0.30;;;;;;;11.79;58.38;95448.81;4979693;28;20087;-82
2024/04/01 17:43:52;;;;;;;0.60;0.30;;;;;;;11.78;59.22;95446.41;5261741;23;20039;-81
2024/04/01 17:46:25;;;;;;;0.80;0.70;;;;;;;11.75;56.34;95447.66;5195844;23;20071;-81
2024/04/01 17:51:59;;;;;;;0.13;0.10;;;;;;;11.74;57.48;95441.63;5436916;23;20055;-81
2024/04/01 17:54:26;;;;;;;0.20;0.15;;;;;;;11.75;59.48;95431.97;4959365;28;20042;-81
2024/04/01 17:56:56;;;;;;;0.45;0.45;;;;;;;11.78;58.97;95430.72;4959422;28;20048;-80
2024/04/01 17:59:21;;;;;;;0.47;0.30;;;;;;;11.80;58.87;95431.31;4943185;28;20046;-81
2024/04/01 18:01:49;;;;;;;1.10;0.30;;;;;;;11.79;58.92;95440.97;4942884;29;20056;-81
2024/04/01 18:04:15;;;;;;;0.43;0.43;;;;;;;11.79;59.56;95448.03;4936863;29;20052;-81
2024/04/01 18:06:42;;;;;;;0.80;0.40;;;;;;;11.78;60.95;95444.59;4929205;29;20439;-75
2024/04/01 18:09:10;;;;;;;0.45;0.30;;;;;;;11.77;60.06;95453.47;4919385;29;20091;-78
2024/04/01 18:11:38;;;;;;;0.30;0.30;;;;;;;11.80;59.31;95460.84;4933616;29;20059;-78
2024/04/01 18:14:05;;;;;;;0.50;0.40;;;;;;;11.83;60.64;95457.00;4953158;29;20420;-79
2024/04/01 18:16:32;;;;;;;3.85;1.85;;;;;;;11.84;60.19;95456.78;4951271;29;20059;-79
2024/04/01 18:18:58;;;;;;;2.92;1.85;;;;;;;11.82;57.53;95464.03;4946891;29;20051;-78
2024/04/01 18:21:25;;;;;;;3.25;2.03;;;;;;;11.74;57.98;95472.97;4934140;29;20428;-78
2024/04/01 18:23:51;;;;;;;3.08;1.90;;;;;;;11.69;57.26;95479.84;4933133;29;20424;-79
2024/04/01 18:26:18;;;;;;;2.17;1.67;;;;;;;11.65;57.85;95478.69;4934267;29;20056;-78
2024/04/01 18:28:45;;;;;;;1.05;0.80;;;;;;;11.58;56.77;95485.78;4936049;29;20056;-79
2024/04/01 18:31:17;;;;;;;1.08;0.80;;;;;;;11.49;56.34;95486.06;4927069;29;20048;-81
2024/04/01 18:33:43;;;;;;;0.95;0.80;;;;;;;11.44;56.65;95492.97;4929588;29;20483;-79
2024/04/01 18:36:12;;;;;;;1.00;0.80;;;;;;;11.41;56.51;95488.94;4933848;29;20081;-79
2024/04/01 18:38:39;;;;;;;0.77;0.70;;;;;;;11.39;57.01;95493.59;4923854;29;20063;-78
2024/04/01 18:41:11;;;;;;;0.47;0.38;;;;;;;11.40;56.68;95487.34;4920693;29;20055;-80
2024/04/01 18:43:36;;;;;;;0.43;0.43;;;;;;;11.41;57.96;95494.16;4943864;29;20048;-81
2024/04/01 18:46:03;;;;;;;1.63;0.55;;;;;;;11.42;57.05;95489.75;4936725;29;20063;-80
2024/04/01 18:48:31;;;;;;;1.10;0.43;;;;;;;11.42;56.67;95495.78;4928908;29;20050;-81
2024/04/01 18:50:58;;;;;;;0.50;0.50;;;;;;;11.43;58.84;95499.97;4938904;29;20060;-81
2024/04/01 18:53:23;;;;;;;0.50;0.50;;;;;;;11.43;59.32;95502.59;4933195;29;20056;-81
2024/04/01 18:55:50;;;;;;;1.00;0.73;;;;;;;11.45;59.16;95511.00;4931036;29;20056;-81
2024/04/01 18:58:16;;;;;;;0.80;0.80;;;;;;;11.44;57.87;95513.84;4935204;29;20056;-81
2024/04/01 19:00:43;;;;;;;1.35;0.88;;;;;;;11.42;58.72;95516.66;4938682;29;20119;-81
2024/04/01 19:03:09;;;;;;;1.15;0.90;;;;;;;11.45;59.25;95523.25;4929467;29;20056;-80
2024/04/01 19:05:37;;;;;;;1.15;1.00;;;;;;;11.43;58.52;95528.69;4926979;29;20056;-80
2024/04/01 19:08:03;;;;;;;1.10;0.70;;;;;;;11.41;57.69;95529.91;4923941;29;20444;-81
2024/04/01 19:10:30;;;;;;;1.65;0.77;;;;;;;11.37;58.46;95529.56;4922503;29;20052;-80
2024/04/01 19:12:56;;;;;;;1.00;0.73;;;;;;;11.35;57.35;95521.16;4921438;29;20084;-80
2024/04/01 19:15:22;;;;;;;0.50;0.50;;;;;;;11.36;59.73;95527.94;4927787;29;20052;-81
2024/04/01 19:17:48;;;;;;;1.15;0.60;;;;;;;11.40;60.22;95523.91;4956724;29;20059;-81
2024/04/01 19:20:18;;;;;;;0.55;0.52;;;;;;;11.42;59.35;95523.69;4956684;28;20044;-80
2024/04/01 19:22:45;;;;;;;0.50;0.47;;;;;;;11.45;59.98;95520.66;4944036;29;20049;-81
2024/04/01 19:25:12;;;;;;;1.67;0.40;;;;;;;11.49;60.90;95522.63;4937461;29;20044;-81
2024/04/01 19:27:38;;;;;;;0.80;0.50;;;;;;;11.54;61.18;95514.97;4937493;29;20060;-81
2024/04/01 19:30:06;;;;;;;1.08;0.70;;;;;;;11.59;61.53;95521.34;4938285;29;20115;-81
2024/04/01 19:32:32;;;;;;;0.60;0.60;;;;;;;11.62;60.47;95516.50;4947937;29;20052;-81
2024/04/01 19:34:58;;;;;;;3.92;2.38;;;;;;;11.64;59.51;95519.69;4952019;29;20048;-81
2024/04/01 19:37:24;;;;;;;1.33;1.10;;;;;;;11.67;60.78;95521.06;4960293;28;20047;-81
2024/04/01 19:39:52;;;;;;;0.80;0.70;;;;;;;11.66;59.94;95522.09;4969204;29;20062;-81
2024/04/01 19:42:18;;;;;;;0.45;0.45;;;;;;;11.65;59.50;95510.03;4969598;28;20047;-81
2024/04/01 19:44:45;;;;;;;2.08;0.38;;;;;;;11.63;59.21;95525.13;4973783;29;20066;-81
2024/04/01 19:47:11;;;;;;;0.45;0.32;;;;;;;11.59;58.50;95516.09;4974439;29;20523;-81
2024/04/01 19:49:38;;;;;;;0.90;0.30;;;;;;;11.58;60.28;95514.53;4979800;28;20085;-80
2024/04/01 19:52:05;;;;;;;2.25;0.40;;;;;;;11.58;61.08;95515.31;4978485;28;20057;-81
2024/04/01 19:54:38;;;;;;;0.35;0.30;;;;;;;11.58;58.68;95524.97;4980332;28;20082;-81
2024/04/01 19:57:09;;;;;;;0.55;0.20;;;;;;;11.57;59.62;95525.97;4971375;29;20061;-81
2024/04/01 19:59:35;;;;;;;0.20;0.20;;;;;;;11.53;59.19;95523.78;4973636;28;20060;-81
2024/04/01 20:02:02;;;;;;;0.32;0.32;;;;;;;11.52;58.38;95532.66;4972452;29;20059;-81
2024/04/01 20:04:29;;;;;;;2.08;0.30;;;;;;;11.50;59.82;95532.06;4973967;28;20492;-81
2024/04/01 20:06:55;;;;;;;0.47;0.40;;;;;;;11.52;60.77;95537.88;4971102;29;20065;-81
2024/04/01 20:09:28;;;;;;;0.65;0.50;;;;;;;11.54;60.58;95540.25;4972629;28;20051;-81
2024/04/01 20:11:54;;;;;;;1.25;0.60;;;;;;;11.55;60.17;95550.50;4972372;28;20105;-81
2024/04/01 20:14:23;;;;;;;0.55;0.30;;;;;;;11.54;59.70;95548.91;4973588;28;20090;-81
2024/04/01 20:16:49;;;;;;;3.53;0.45;;;;;;;11.54;60.34;95551.53;4971602;29;20086;-81
2024/04/01 20:19:16;;;;;;;2.45;1.73;;;;;;;11.52;59.28;95564.00;4971876;29;20069;-81
2024/04/01 20:21:42;;;;;;;3.08;1.58;;;;;;;11.52;61.11;95557.94;4970830;29;20051;-81
2024/04/01 20:24:13;;;;;;;29.38;17.60;;;;;;;11.50;60.45;95566.03;4971052;29;20102;-80
2024/04/01 20:26:39;;;;;;;6.38;3.42;;;;;;;11.50;60.74;95565.19;4973774;28;20047;-81
2024/04/01 20:29:07;;;;;;;2.15;0.90;;;;;;;11.51;60.87;95572.03;4971285;29;20066;-81
2024/04/01 20:31:34;;;;;;;0.90;0.55;;;;;;;11.48;59.32;95573.25;4972807;28;20055;-81
2024/04/01 20:34:02;;;;;;;1.67;0.50;;;;;;;11.46;60.70;95575.28;4971934;29;20054;-81
2024/04/01 20:36:28;;;;;;;0.50;0.40;;;;;;;11.46;61.88;95574.50;4972294;28;20078;-81
2024/04/01 20:38:55;;;;;;;0.82;0.70;;;;;;;11.44;60.49;95571.28;4969452;29;20047;-81
2024/04/01 20:41:22;;;;;;;1.75;0.75;;;;;;;11.37;60.39;95571.34;4971126;28;20059;-81
2024/04/01 20:43:55;;;;;;;0.70;0.70;;;;;;;11.36;60.67;95569.72;4969845;29;20055;-82
2024/04/01 20:46:21;;;;;;;1.50;0.60;;;;;;;11.37;60.71;95567.91;4970158;28;20059;-81
2024/04/01 20:48:50;;;;;;;0.90;0.60;;;;;;;11.37;60.30;95571.34;4969576;29;20086;-81
2024/04/01 20:51:16;;;;;;;0.70;0.65;;;;;;;11.34;60.07;95569.94;4968966;29;20051;-81
2024/04/01 20:53:45;;;;;;;0.38;0.38;;;;;;;11.30;60.91;95568.78;4969961;29;20047;-81
2024/04/01 20:56:24;;;;;;;0.70;0.63;;;;;;;11.27;59.54;95565.78;4971764;29;20741;-81
2024/04/01 20:58:51;;;;;;;0.95;0.40;;;;;;;11.24;59.20;95572.22;4972099;29;20055;-81
2024/04/01 21:01:16;;;;;;;0.30;0.30;;;;;;;11.20;61.03;95560.59;4969816;28;20514;-82
2024/04/01 21:03:44;;;;;;;1.25;0.60;;;;;;;11.19;61.27;95561.59;4968550;29;20059;-81
2024/04/01 21:06:16;;;;;;;0.60;0.55;;;;;;;11.18;61.21;95567.06;4989396;28;20049;-81
2024/04/01 21:08:45;;;;;;;1.25;0.80;;;;;;;11.17;61.46;95565.44;4979905;28;20043;-80
2024/04/01 21:11:11;;;;;;;0.40;0.40;;;;;;;11.17;60.81;95570.66;4979573;28;20047;-81
2024/04/01 21:13:38;;;;;;;0.68;0.30;;;;;;;11.18;60.37;95567.06;4979027;28;20055;-81
2024/04/01 21:16:04;;;;;;;2.35;0.80;;;;;;;11.15;60.22;95573.50;4968580;29;20051;-81
2024/04/01 21:18:32;;;;;;;24.95;15.38;;;;;;;11.16;60.98;95566.47;4969426;28;20086;-81
2024/04/01 21:20:59;;;;;;;23.38;12.57;;;;;;;11.16;60.93;95563.84;4967737;29;20061;-81
2024/04/01 21:23:28;;;;;;;11.30;6.53;;;;;;;11.17;61.69;95570.66;4966975;28;20065;-81
2024/04/01 21:25:54;;;;;;;2.55;1.08;;;;;;;11.14;61.30;95570.06;4967068;29;20086;-81
2024/04/01 21:28:21;;;;;;;0.98;0.60;;;;;;;11.13;61.53;95565.88;4967786;28;20531;-81
2024/04/01 21:30:47;;;;;;;1.25;0.73;;;;;;;11.14;61.97;95570.06;4969048;29;20063;-81
2024/04/01 21:33:14;;;;;;;1.25;0.55;;;;;;;11.16;61.40;95574.28;4966995;29;20047;-81
2024/04/01 21:35:39;;;;;;;1.30;0.68;;;;;;;11.16;60.80;95589.94;4970089;28;20404;-81
2024/04/01 21:38:06;;;;;;;0.40;0.40;;;;;;;11.14;60.77;95588.34;4966860;29;20090;-81
2024/04/01 21:40:34;;;;;;;1.17;0.30;;;;;;;11.10;59.93;95594.19;4968257;28;20051;-81
2024/04/01 21:43:00;;;;;;;0.32;0.30;;;;;;;11.07;60.45;95592.78;4966344;29;20059;-81
2024/04/01 21:45:26;;;;;;;1.13;0.50;;;;;;;11.05;60.75;95597.44;4970103;28;20055;-81
2024/04/01 21:47:53;;;;;;;1.15;0.38;;;;;;;11.04;61.28;95608.88;4969725;29;20057;-80
2024/04/01 21:50:20;;;;;;;1.70;0.40;;;;;;;11.02;61.43;95604.84;4971019;28;20035;-81
2024/04/01 21:52:48;;;;;;;1.00;0.40;;;;;;;11.04;60.55;95605.44;4978340;28;20035;-81
2024/04/01 21:55:15;;;;;;;20.13;10.80;;;;;;;11.01;60.70;95604.06;4979265;28;20035;-81
2024/04/01 21:57:44;;;;;;;22.48;12.80;;;;;;;10.98;60.96;95607.09;4995396;28;20038;-81
2024/04/01 22:00:25;;;;;;;5.13;2.58;;;;;;;10.97;60.85;95607.31;4979283;28;20037;-81
2024/04/01 22:02:55;;;;;;;1.13;0.57;;;;;;;10.94;60.65;95600.69;4978575;28;20043;-82
2024/04/01 22:05:22;;;;;;;0.73;0.40;;;;;;;10.88;60.51;95604.13;4978861;28;20030;-82
2024/04/01 22:07:49;;;;;;;0.30;0.30;;;;;;;10.85;60.52;95596.72;4978483;28;20045;-81
2024/04/01 22:10:17;;;;;;;1.65;0.30;;;;;;;10.84;61.46;95600.34;4979124;28;20133;-82
2024/04/01 22:12:46;;;;;;;0.40;0.40;;;;;;;10.82;61.66;95602.34;4982428;28;20031;-82
2024/04/01 22:15:12;;;;;;;1.30;0.57;;;;;;;10.81;61.48;95598.94;4982291;28;20038;-82
2024/04/01 22:17:40;;;;;;;1.45;0.60;;;;;;;10.83;62.58;95604.75;4982254;28;20082;-81
2024/04/01 22:20:06;;;;;;;0.38;0.38;;;;;;;10.85;62.58;95607.16;4978596;28;20055;-81
2024/04/01 22:22:34;;;;;;;0.57;0.57;;;;;;;10.83;61.78;95609.19;4980666;28;20051;-82
2024/04/01 22:25:01;;;;;;;0.40;0.30;;;;;;;10.80;61.19;95614.78;4978830;28;20035;-81
2024/04/01 22:27:28;;;;;;;0.35;0.30;;;;;;;10.78;62.03;95620.25;4980159;28;20049;-81
2024/04/01 22:29:57;;;;;;;0.77;0.57;;;;;;;10.76;61.60;95619.66;4979115;28;20062;-81
2024/04/01 22:32:25;;;;;;;1.65;0.75;;;;;;;10.76;62.09;95626.66;4979724;28;20061;-81
2024/04/01 22:34:51;;;;;;;0.35;0.30;;;;;;;10.77;62.48;95623.03;4979926;28;20023;-81
2024/04/01 22:37:19;;;;;;;1.35;0.75;;;;;;;10.76;62.91;95631.88;4981782;28;20045;-80
2024/04/01 22:39:45;;;;;;;1.25;0.30;;;;;;;10.76;62.14;95629.25;4982246;28;20487;-81
2024/04/01 22:42:13;;;;;;;0.35;0.30;;;;;;;10.75;62.06;95635.50;4982611;28;20043;-81
2024/04/01 22:44:41;;;;;;;0.85;0.55;;;;;;;10.75;62.58;95630.28;4984968;28;20045;-81
2024/04/01 22:47:10;;;;;;;0.88;0.40;;;;;;;10.73;62.16;95643.50;4982442;28;20078;-81
2024/04/01 22:49:36;;;;;;;0.85;0.30;;;;;;;10.70;62.74;95654.38;4985078;28;20041;-82
2024/04/01 22:52:04;;;;;;;0.47;0.40;;;;;;;10.65;61.49;95651.59;4981816;28;20066;-81
2024/04/01 22:54:31;;;;;;;0.75;0.30;;;;;;;10.61;62.28;95650.41;4984092;28;20059;-82
2024/04/01 22:56:58;;;;;;;0.50;0.22;;;;;;;10.60;62.22;95649.56;4981674;28;20031;-81
2024/04/01 22:59:25;;;;;;;1.95;0.30;;;;;;;10.60;61.87;95659.22;4982549;28;20051;-81
2024/04/01 23:01:52;;;;;;;1.48;0.40;;;;;;;10.54;61.20;95653.03;4981958;28;20047;-81
2024/04/01 23:04:20;;;;;;;0.60;0.25;;;;;;;10.54;62.21;95655.63;4981848;28;20039;-82
2024/04/01 23:06:47;;;;;;;1.30;0.40;;;;;;;10.54;61.67;95650.41;4981247;28;20031;-81
2024/04/01 23:09:14;;;;;;;0.63;0.50;;;;;;;10.53;62.40;95646.19;4981398;28;20054;-81
2024/04/01 23:11:41;;;;;;;1.48;0.40;;;;;;;10.51;62.57;95646.38;4984661;28;20058;-81
2024/04/01 23:14:07;;;;;;;0.85;0.20;;;;;;;10.49;62.67;95655.41;4981760;28;20047;-80
2024/04/01 23:16:34;;;;;;;0.38;0.20;;;;;;;10.50;62.17;95649.22;4983541;28;20039;-81
2024/04/01 23:19:00;;;;;;;0.20;0.20;;;;;;;10.49;62.76;95650.19;4980969;28;20031;-82
2024/04/01 23:21:28;;;;;;;0.82;0.52;;;;;;;10.46;61.78;95653.22;4982290;28;20122;-81
2024/04/01 23:23:54;;;;;;;0.57;0.25;;;;;;;10.41;61.90;95653.06;4981703;28;20039;-82
2024/04/01 23:26:21;;;;;;;1.45;0.57;;;;;;;10.41;62.39;95664.28;4982201;28;20034;-81
2024/04/01 23:28:50;;;;;;;0.43;0.20;;;;;;;10.36;61.42;95663.28;4981476;28;20031;-81
2024/04/01 23:31:17;;;;;;;0.63;0.40;;;;;;;10.35;62.18;95659.88;4981150;28;20062;-81
2024/04/01 23:33:42;;;;;;;1.08;0.40;;;;;;;10.35;61.76;95666.88;4973666;28;20035;-81
2024/04/01 23:36:10;;;;;;;1.27;0.20;;;;;;;10.33;62.49;95674.91;4981313;28;20032;-80
2024/04/01 23:38:37;;;;;;;0.30;0.30;;;;;;;10.33;62.08;95679.31;4983036;28;20051;-81
2024/04/01 23:41:04;;;;;;;0.73;0.40;;;;;;;10.32;62.67;95670.72;4980548;28;20094;-81
2024/04/01 23:43:30;;;;;;;0.40;0.10;;;;;;;10.33;63.63;95668.91;4981549;28;20039;-81
2024/04/01 23:45:57;;;;;;;0.32;0.22;;;;;;;10.29;62.42;95671.88;4979014;28;20055;-81
2024/04/01 23:48:23;;;;;;;0.65;0.35;;;;;;;10.29;63.00;95678.91;4980270;28;20055;-81
2024/04/01 23:50:52;;;;;;;0.63;0.20;;;;;;;10.28;62.67;95678.09;4979698;29;20055;-82
2024/04/01 23:53:18;;;;;;;0.57;0.20;;;;;;;10.27;62.59;95679.09;4979253;28;20051;-81
2024/04/01 23:55:48;;;;;;;0.25;0.20;;;;;;;10.28;63.28;95677.28;4978928;29;20043;-82
2024/04/01 23:58:14;;;;;;;0.40;0.20;;;;;;;10.29;63.93;95684.13;4979043;28;20027;-82
